Joyce, Washington
Current Conditions -  °F | °C
As of 6:53 PM on Saturday 25 Oct 2014 (Local Time) from KCLM Reporting Station
Light Rain Light Rain  
Wind Chill: 53°   Ceiling: 700
Heat Index: 53°   Visibility: 10mi
Dew Point: 51°   Wind: 7mph
Humidity: 93%   Direction: 250°WSW
Pressure: 29.28"   Gusts: NA
Location:  48.14°N, 123.74°W
Report Text: KCLM 260153Z AUTO 25006KT 10SM -RA BKN007 BKN013 OVC065 12/11 A2928 RMK AO2 CIG 005V011 SLP916 P0012 T01170106 TSNO $
Loading
Personal Weather Stations






























Interactive Weather Map
Tropical Storm Tracking
New forecast layout! Learn more

10-Day Weather Forecast

Advertisements
Track Severe Weather on mobile